Rieti Airfield

LIQN · 拉齐奥, 意大利

TAF LIQN · Rieti Airfield

使用的TAF站离机场有49 km的距离
2024年7月22日 17:002024年7月23日 02:00有效
时间
星期一
17:00
星期一
18:00
星期一
19:00
星期一
20:00
星期一
21:00
星期一
22:00
星期一
23:00
星期二
00:00
星期二
01:00
代码
VFR
VFR
VFR
VFR
VFR
VFR
VFR
VFR
VFR
天气
几云
几云
几云
几云
几云
几云
几云
几云
几云
能见度
10 km+
10 km+
10 km+
10 km+
10 km+
10 km+
10 km+
10 km+
10 km+
天花板
-
-
-
-
-
-
-
-
-
170°
170°
170°
170°
170°
170°
170°
170°
170°
170°
170°
170°
170°
170°
170°
170°
170°
170°
速度
10 kt
10 kt
10 kt
10 kt
10 kt
10 kt
10 kt
10 kt
10 kt
阵风
温度/星期日
20:37

原版的

TAF LIRG 221400Z 2215/2224 17010KT 9999 FEW030

TAF Rieti Airfield

Rieti Airfield是,意大利中的小机场。 该机场位于纬度42,42667和经度12,84904。 该机场有2条跑道: 16L/34R 和 16R/34L. 本场的ICAO机场代码为LIQN。 机场在Roma FIR中。

该航空气象观测是针对Guidonia Air Base在2024年7月22日 16:00, 当地时间进行的。 从2024年7月22日 17:00到2024年7月23日 02:00, 当地时间有效.

预报

  • 在星期一 17:00和星期二 02:00之间

    • 风: 风来自170°方向,速度为10 kt。
    • 能见度: 10 km 或者更多
    • 乌云: 几云在3.000 ft的高度.

白天

今天,太阳从05:51升起,在20:38降落。 这适用于Rieti Airfield,世界夏令时可能有所不同。 当地时间与世界标准时间之间的时差为+2 小时。 夏令时目前正在进行中。

报告变更